Página principal
METAR-TAF:

METAR-TAF

Aeroportos :

El Aaiún, Marrocos

latitude: 27-10N, longitude: 013-12-59W, altura: 6 m

Observação actual do tempo

O boletim foi feito há 40 minutos, às 13:00 UTC
Vento 23 kt de nor-nordeste
Temperatura 28°C
Humidade 55%
Pressão 1016 hPa
Visibilidade: 8000 m

METAR: GMML 071300Z 03023KT 8000 NSC 28/18 Q1016 NOSIG

Hora: 14:40 (13:40 UTC)

Previsão

O boletim foi feito há 2 horas e 40 minutos, às 11:00 UTC
Previsão válida de 07 às 12 UTC a 08 às 18 UTC
Vento 20 kt de nordeste
Visibilidade: 8000 m

TAF: GMML 071100Z 0712/0818 05020KT 8000 NSC

Observações e previsões do tempo de mais de 4000 aeroportos (mensagens METAR e TAF).

As estações disponíveis são os pontos amarelos e vermelhos sobre o mapa.

Mova o rato sobre o mapa para ver o nome da estação.

Depois clique no ponto para visualizar as observações e previsões meteorológicas.

Para alterar o mapa : clique nos botões verdes com uma cruz preta para aumentar o zoom; no botão verde com uma pitada de zoom; ou nas setas verdes para mapas adjacentes.


METAR-TAF: